Time;durP1;ratioP1;P1;durP2;ratioP2;P2;SDS_P1;SDS_P2;PMS_P1;PMS_P2;Temp;Humidity;BMP_temperature;BMP_pressure;BME280_temperature;BME280_humidity;BME280_pressure;Samples;Min_cycle;Max_cycle;Signal;HPM_P1;HPM_P2
2021/08/04 00:00:28;;;;;;;0.23;0.20;;;16.30;99.90;;;;;;5062835;28;20190;-85
2021/08/04 00:02:53;;;;;;;0.37;0.20;;;16.30;99.90;;;;;;5069013;28;20271;-85
2021/08/04 00:05:19;;;;;;;0.10;0.10;;;16.00;99.90;;;;;;5053299;28;20185;-85
2021/08/04 00:07:45;;;;;;;0.10;0.10;;;16.10;99.90;;;;;;5040406;28;20648;-85
2021/08/04 00:10:12;;;;;;;0.37;0.20;;;15.80;99.90;;;;;;5053829;28;20188;-85
2021/08/04 00:12:37;;;;;;;0.20;0.20;;;15.70;99.90;;;;;;5053111;28;20284;-85
2021/08/04 00:15:04;;;;;;;0.23;0.23;;;15.70;99.90;;;;;;5052706;28;20211;-85
2021/08/04 00:17:29;;;;;;;0.30;0.30;;;15.60;99.90;;;;;;5051801;28;20185;-83
2021/08/04 00:19:55;;;;;;;0.23;0.23;;;15.70;99.90;;;;;;5070342;28;20185;-85
2021/08/04 00:22:21;;;;;;;0.47;0.30;;;15.70;99.90;;;;;;5045948;28;20291;-84
2021/08/04 00:24:47;;;;;;;0.17;0.17;;;15.80;99.90;;;;;;5069116;28;20281;-85
2021/08/04 00:27:12;;;;;;;0.10;0.10;;;15.70;99.90;;;;;;5069155;28;20183;-84
2021/08/04 00:29:38;;;;;;;0.50;0.50;;;15.90;99.90;;;;;;5051091;28;20190;-85
2021/08/04 00:32:04;;;;;;;0.20;0.20;;;16.00;99.90;;;;;;5079323;28;20188;-85
2021/08/04 00:34:30;;;;;;;0.17;0.17;;;16.20;99.90;;;;;;5046545;28;20269;-85
2021/08/04 00:36:55;;;;;;;0.10;0.10;;;16.40;99.90;;;;;;5049579;28;20184;-84
2021/08/04 00:39:21;;;;;;;0.20;0.20;;;16.50;99.90;;;;;;5054234;28;20687;-85
2021/08/04 00:41:46;;;;;;;0.20;0.20;;;16.60;99.90;;;;;;5054082;28;20243;-85
2021/08/04 00:44:12;;;;;;;0.20;0.20;;;16.70;99.90;;;;;;5047215;28;20200;-85
2021/08/04 00:46:42;;;;;;;0.17;0.17;;;16.70;99.90;;;;;;5053445;28;20633;-84
2021/08/04 00:49:10;;;;;;;0.37;0.30;;;16.60;99.90;;;;;;5051931;28;20195;-84
2021/08/04 00:51:36;;;;;;;0.40;0.40;;;16.60;99.90;;;;;;5051419;28;20188;-85
2021/08/04 00:54:06;;;;;;;0.30;0.30;;;16.60;99.90;;;;;;5069708;28;20309;-85
2021/08/04 00:56:33;;;;;;;0.47;0.40;;;16.60;99.90;;;;;;5049349;28;20184;-84
2021/08/04 00:59:00;;;;;;;0.10;0.10;;;16.60;99.90;;;;;;5053339;28;20243;-85
2021/08/04 01:01:37;;;;;;;0.20;0.13;;;16.70;99.90;;;;;;5067306;28;20193;-84
2021/08/04 01:04:36;;;;;;;0.20;0.20;;;16.70;99.90;;;;;;5052550;28;20199;-85
2021/08/04 01:07:41;;;;;;;0.20;0.20;;;16.80;99.90;;;;;;5054167;28;20611;-83
2021/08/04 01:10:15;;;;;;;0.13;0.13;;;16.80;99.90;;;;;;5011091;28;20196;-84
2021/08/04 01:12:50;;;;;;;0.10;0.10;;;16.80;99.90;;;;;;5071770;28;20234;-85
2021/08/04 01:15:17;;;;;;;0.20;0.20;;;16.80;99.90;;;;;;5052762;28;20219;-84
2021/08/04 01:17:47;;;;;;;0.27;0.27;;;16.80;99.90;;;;;;5044703;28;20177;-85
2021/08/04 01:20:18;;;;;;;0.43;0.40;;;16.80;99.90;;;;;;5046331;28;20230;-85
2021/08/04 01:23:02;;;;;;;0.30;0.30;;;16.80;99.90;;;;;;5069647;28;20204;-85
2021/08/04 01:25:55;;;;;;;0.40;0.40;;;16.70;99.90;;;;;;5047621;28;20184;-85
2021/08/04 01:28:28;;;;;;;0.20;0.20;;;16.60;99.90;;;;;;5066555;28;20187;-85
2021/08/04 01:31:06;;;;;;;0.20;0.20;;;16.60;99.90;;;;;;5068588;28;20186;-82
2021/08/04 01:33:37;;;;;;;0.10;0.10;;;16.60;99.90;;;;;;5066974;28;20211;-85
2021/08/04 01:36:04;;;;;;;0.37;0.20;;;16.60;99.90;;;;;;5044953;28;20193;-85
2021/08/04 01:38:31;;;;;;;0.10;0.10;;;16.50;99.90;;;;;;5052592;28;20190;-85
2021/08/04 01:40:57;;;;;;;0.30;0.30;;;16.50;99.90;;;;;;5080626;28;20675;-85
2021/08/04 01:43:25;;;;;;;0.60;0.60;;;16.50;99.90;;;;;;5046083;28;20722;-84
2021/08/04 01:45:55;;;;;;;0.40;0.30;;;16.50;99.90;;;;;;5049528;28;20184;-84
2021/08/04 01:48:21;;;;;;;0.30;0.30;;;16.40;99.90;;;;;;5068375;28;20190;-86
2021/08/04 01:50:49;;;;;;;0.20;0.20;;;16.40;99.90;;;;;;5069961;28;20187;-85
2021/08/04 01:53:15;;;;;;;0.10;0.10;;;16.30;99.90;;;;;;5053600;28;20277;-85
2021/08/04 01:55:41;;;;;;;0.20;0.20;;;16.30;99.90;;;;;;5054709;28;20709;-85
2021/08/04 01:58:06;;;;;;;0.87;0.40;;;16.30;99.90;;;;;;5049229;28;20174;-85
2021/08/04 02:00:32;;;;;;;0.20;0.10;;;16.30;99.90;;;;;;5051246;28;20262;-85
2021/08/04 02:02:57;;;;;;;0.23;0.23;;;16.30;99.90;;;;;;5051424;28;20544;-84
2021/08/04 02:05:23;;;;;;;0.13;0.13;;;16.30;99.90;;;;;;5053043;28;20241;-85
2021/08/04 02:08:38;;;;;;;0.10;0.10;;;16.30;99.90;;;;;;5051183;28;20179;-85
2021/08/04 02:11:22;;;;;;;0.63;0.33;;;16.30;99.90;;;;;;5003650;28;20288;-85
2021/08/04 02:14:04;;;;;;;0.20;0.20;;;16.30;99.90;;;;;;5066220;28;20568;-85
2021/08/04 02:17:01;;;;;;;0.30;0.30;;;16.40;99.90;;;;;;5052826;28;20556;-84
2021/08/04 02:19:48;;;;;;;0.30;0.30;;;16.40;99.90;;;;;;5043770;28;20202;-85
2021/08/04 02:22:26;;;;;;;0.20;0.20;;;16.30;99.90;;;;;;5052450;28;20291;-84
2021/08/04 02:25:01;;;;;;;0.20;0.20;;;16.40;99.90;;;;;;5046730;28;20215;-85
2021/08/04 02:27:28;;;;;;;0.20;0.20;;;16.40;99.90;;;;;;5064210;28;20184;-85
2021/08/04 02:29:56;;;;;;;0.10;0.10;;;16.40;99.90;;;;;;5049790;28;20188;-85
2021/08/04 02:32:22;;;;;;;0.17;0.17;;;16.30;99.90;;;;;;5054506;28;20204;-85
2021/08/04 02:34:47;;;;;;;0.10;0.10;;;16.30;99.90;;;;;;5075987;28;20223;-85
2021/08/04 02:37:13;;;;;;;0.50;0.50;;;16.30;99.90;;;;;;5056279;28;20184;-85
2021/08/04 02:39:39;;;;;;;0.20;0.20;;;16.20;99.90;;;;;;5051788;28;20177;-85
2021/08/04 02:42:05;;;;;;;2.00;0.30;;;16.20;99.90;;;;;;5066797;28;20181;-85
2021/08/04 02:44:31;;;;;;;0.10;0.10;;;16.30;99.90;;;;;;5056877;28;20181;-85
2021/08/04 02:46:57;;;;;;;0.23;0.23;;;16.20;99.90;;;;;;5055681;28;20192;-85
2021/08/04 02:49:23;;;;;;;0.10;0.10;;;16.20;99.90;;;;;;5070575;28;20233;-85
2021/08/04 02:51:48;;;;;;;0.40;0.40;;;16.30;99.90;;;;;;5053992;28;20188;-85
2021/08/04 02:54:18;;;;;;;0.17;0.17;;;16.30;99.90;;;;;;5055502;28;20214;-85
2021/08/04 02:56:43;;;;;;;0.20;0.20;;;16.20;99.90;;;;;;5053320;28;20241;-85
2021/08/04 02:59:09;;;;;;;0.30;0.30;;;16.30;99.90;;;;;;5069394;28;20192;-85
2021/08/04 03:01:35;;;;;;;0.30;0.30;;;16.40;99.90;;;;;;5076677;28;20181;-85
2021/08/04 03:04:01;;;;;;;0.10;0.10;;;16.50;99.90;;;;;;5052919;28;20291;-84
2021/08/04 03:06:26;;;;;;;0.10;0.10;;;16.50;99.90;;;;;;5051379;28;20192;-83
2021/08/04 03:08:52;;;;;;;0.10;0.10;;;16.50;99.90;;;;;;5072609;28;20196;-85
2021/08/04 03:11:17;;;;;;;0.20;0.20;;;16.50;99.90;;;;;;5050732;28;20196;-85
2021/08/04 03:13:43;;;;;;;0.20;0.20;;;16.40;99.90;;;;;;5068586;28;20250;-85
2021/08/04 03:16:09;;;;;;;0.20;0.20;;;16.40;99.90;;;;;;5071253;28;20644;-85
2021/08/04 03:18:34;;;;;;;0.50;0.50;;;16.40;99.90;;;;;;5055279;28;20192;-85
2021/08/04 03:21:00;;;;;;;0.10;0.10;;;16.40;99.90;;;;;;5053771;28;20195;-85
2021/08/04 03:23:25;;;;;;;0.10;0.10;;;16.40;99.90;;;;;;5070754;28;20212;-84
2021/08/04 03:25:51;;;;;;;0.57;0.57;;;16.30;99.90;;;;;;5067468;28;20191;-85
2021/08/04 03:28:16;;;;;;;0.10;0.10;;;16.30;99.90;;;;;;5066065;28;20216;-82
2021/08/04 03:30:42;;;;;;;0.20;0.20;;;16.30;99.90;;;;;;5069052;28;20194;-85
2021/08/04 03:33:08;;;;;;;0.23;0.23;;;16.30;99.90;;;;;;5072729;28;20204;-86
2021/08/04 03:35:33;;;;;;;0.10;0.10;;;16.30;99.90;;;;;;5054026;28;20205;-85
2021/08/04 03:37:59;;;;;;;0.10;0.10;;;16.20;99.90;;;;;;5070564;28;20184;-83
2021/08/04 03:40:24;;;;;;;0.10;0.10;;;16.20;99.90;;;;;;5075354;28;21132;-85
2021/08/04 03:42:50;;;;;;;0.40;0.20;;;16.30;99.90;;;;;;5052686;28;20196;-85
2021/08/04 03:45:15;;;;;;;0.20;0.20;;;16.30;99.90;;;;;;5065350;28;20271;-86
2021/08/04 03:47:41;;;;;;;0.27;0.27;;;16.50;99.90;;;;;;5072222;28;20762;-84
2021/08/04 03:50:07;;;;;;;0.50;0.50;;;16.60;99.90;;;;;;5071597;28;20561;-86
2021/08/04 03:52:33;;;;;;;0.83;0.40;;;16.60;99.90;;;;;;5041985;28;20201;-86
2021/08/04 03:54:59;;;;;;;0.27;0.27;;;16.70;99.90;;;;;;5052919;28;20212;-86
2021/08/04 03:57:24;;;;;;;0.37;0.20;;;16.70;99.90;;;;;;5050986;28;20211;-85
2021/08/04 03:59:50;;;;;;;0.30;0.30;;;16.60;99.90;;;;;;5046958;28;20560;-86
2021/08/04 04:02:18;;;;;;;0.30;0.30;;;16.60;99.90;;;;;;5054681;28;20204;-86
2021/08/04 04:04:43;;;;;;;0.20;0.20;;;16.40;99.90;;;;;;5066444;28;20180;-85
2021/08/04 04:07:09;;;;;;;0.20;0.20;;;16.40;99.90;;;;;;5051711;28;20200;-86
2021/08/04 04:09:36;;;;;;;0.20;0.20;;;16.40;99.90;;;;;;5052188;28;20253;-86
2021/08/04 04:12:02;;;;;;;0.10;0.10;;;16.30;99.90;;;;;;5052642;28;20200;-87
2021/08/04 04:14:27;;;;;;;0.20;0.20;;;16.30;99.90;;;;;;5053693;28;20905;-86
2021/08/04 04:16:53;;;;;;;0.97;0.50;;;16.30;99.90;;;;;;5069741;28;20188;-84
2021/08/04 04:19:19;;;;;;;0.23;0.23;;;16.30;99.90;;;;;;5049482;28;20212;-87
2021/08/04 04:21:45;;;;;;;0.37;0.20;;;16.30;99.90;;;;;;5052855;28;20187;-86
2021/08/04 04:24:10;;;;;;;0.77;0.27;;;16.30;99.90;;;;;;5071925;28;20286;-86
2021/08/04 04:26:36;;;;;;;0.10;0.10;;;16.30;99.90;;;;;;5052845;28;20198;-85
2021/08/04 04:29:02;;;;;;;0.20;0.10;;;16.30;99.90;;;;;;5051723;28;20188;-86
2021/08/04 04:31:28;;;;;;;0.50;0.30;;;16.30;99.90;;;;;;5052318;28;20211;-85
2021/08/04 04:33:54;;;;;;;0.20;0.20;;;16.20;99.90;;;;;;5071345;28;20231;-86
2021/08/04 04:36:19;;;;;;;0.47;0.47;;;16.00;99.90;;;;;;5052266;28;20183;-87
2021/08/04 04:38:45;;;;;;;0.20;0.20;;;16.10;99.90;;;;;;5051277;28;20251;-84
2021/08/04 04:41:11;;;;;;;0.30;0.30;;;16.20;99.90;;;;;;5068571;28;20191;-85
2021/08/04 04:43:38;;;;;;;0.53;0.50;;;16.20;99.90;;;;;;5057860;28;20294;-85
2021/08/04 04:46:04;;;;;;;0.20;0.20;;;16.30;99.90;;;;;;5071167;28;20262;-85
2021/08/04 04:48:29;;;;;;;0.37;0.37;;;16.40;99.90;;;;;;5068710;28;20671;-84
2021/08/04 04:50:55;;;;;;;1.57;0.30;;;16.20;99.90;;;;;;5070559;28;20233;-86
2021/08/04 04:53:21;;;;;;;0.27;0.27;;;15.80;99.90;;;;;;5050768;28;20214;-84
2021/08/04 04:55:46;;;;;;;2.20;0.70;;;15.40;99.90;;;;;;5052196;28;20223;-86
2021/08/04 04:58:12;;;;;;;0.47;0.47;;;15.50;99.90;;;;;;5069975;28;20179;-84
2021/08/04 05:00:37;;;;;;;0.50;0.50;;;15.60;99.90;;;;;;5052179;28;20188;-85
2021/08/04 05:03:03;;;;;;;0.10;0.10;;;15.70;99.90;;;;;;5051522;28;20200;-82
2021/08/04 05:05:28;;;;;;;0.47;0.47;;;15.50;99.90;;;;;;5050589;28;20184;-84
2021/08/04 05:07:54;;;;;;;0.30;0.30;;;15.50;99.90;;;;;;5047660;28;20220;-87
2021/08/04 05:10:20;;;;;;;0.20;0.20;;;15.40;99.90;;;;;;5049235;28;20220;-83
2021/08/04 05:12:45;;;;;;;0.10;0.10;;;15.40;99.90;;;;;;5052511;28;20718;-83
2021/08/04 05:15:11;;;;;;;0.53;0.53;;;15.50;99.90;;;;;;5052213;28;20207;-84
2021/08/04 05:17:37;;;;;;;0.67;0.60;;;15.50;99.90;;;;;;5049092;28;20234;-86
2021/08/04 05:20:04;;;;;;;0.20;0.20;;;15.30;99.90;;;;;;5050570;28;20686;-86
2021/08/04 05:22:30;;;;;;;0.50;0.50;;;15.40;99.90;;;;;;5068679;28;20218;-84
2021/08/04 05:24:55;;;;;;;0.27;0.23;;;15.50;99.90;;;;;;5051934;28;20195;-84
2021/08/04 05:27:21;;;;;;;0.10;0.10;;;15.60;99.90;;;;;;5071836;28;20273;-85
2021/08/04 05:29:46;;;;;;;0.30;0.30;;;15.80;99.90;;;;;;5049969;28;20194;-84
2021/08/04 05:32:12;;;;;;;0.17;0.17;;;16.20;99.90;;;;;;5050192;28;20192;-83
2021/08/04 05:34:37;;;;;;;0.20;0.20;;;16.60;99.90;;;;;;5052542;28;20249;-84
2021/08/04 05:37:03;;;;;;;0.30;0.27;;;16.70;99.90;;;;;;5048612;28;20648;-85
2021/08/04 05:39:29;;;;;;;0.30;0.30;;;17.20;99.90;;;;;;5055092;28;20184;-84
2021/08/04 05:41:54;;;;;;;0.20;0.20;;;17.40;99.90;;;;;;5046087;28;20181;-83
2021/08/04 05:44:20;;;;;;;0.30;0.30;;;17.50;99.90;;;;;;5047037;28;20195;-84
2021/08/04 05:46:46;;;;;;;0.30;0.30;;;17.80;99.90;;;;;;5050913;28;20271;-85
2021/08/04 05:49:11;;;;;;;0.37;0.37;;;18.10;99.90;;;;;;5066658;28;21317;-84
2021/08/04 05:51:37;;;;;;;0.53;0.53;;;18.30;99.90;;;;;;5051932;28;20191;-84
2021/08/04 05:54:02;;;;;;;0.47;0.23;;;18.40;99.90;;;;;;5053296;28;20311;-84
2021/08/04 05:56:28;;;;;;;0.40;0.40;;;18.50;99.90;;;;;;5059378;28;20665;-85
2021/08/04 05:58:53;;;;;;;0.30;0.30;;;18.60;99.90;;;;;;5054286;28;20265;-85
2021/08/04 06:01:19;;;;;;;0.50;0.50;;;18.10;99.90;;;;;;5050726;28;20181;-85
2021/08/04 06:03:44;;;;;;;1.13;0.47;;;18.00;99.90;;;;;;5050275;28;20201;-83
2021/08/04 06:06:10;;;;;;;0.40;0.40;;;17.90;99.90;;;;;;5069794;28;20184;-85
2021/08/04 06:08:36;;;;;;;0.37;0.37;;;18.00;99.90;;;;;;5068577;28;20185;-84
2021/08/04 06:11:01;;;;;;;0.47;0.47;;;18.30;99.90;;;;;;5049089;28;20280;-85
2021/08/04 06:13:27;;;;;;;0.50;0.30;;;18.50;99.90;;;;;;5055518;28;20271;-85
2021/08/04 06:15:53;;;;;;;0.20;0.20;;;18.70;99.90;;;;;;5052885;28;20247;-85
2021/08/04 06:18:19;;;;;;;0.87;0.77;;;18.50;99.90;;;;;;5071375;28;20184;-84
2021/08/04 06:20:45;;;;;;;0.27;0.27;;;18.30;99.90;;;;;;5057301;28;20653;-84
2021/08/04 06:23:11;;;;;;;0.40;0.40;;;18.20;99.90;;;;;;5056942;28;20204;-84
2021/08/04 06:25:36;;;;;;;0.40;0.40;;;18.00;99.90;;;;;;5050802;28;20828;-85
2021/08/04 06:28:02;;;;;;;1.73;1.37;;;18.00;99.90;;;;;;5058129;28;20661;-85
2021/08/04 06:30:27;;;;;;;0.63;0.40;;;18.40;99.90;;;;;;5074222;28;20276;-84
2021/08/04 06:32:53;;;;;;;0.37;0.37;;;18.80;99.90;;;;;;5072942;28;20209;-84
2021/08/04 06:35:19;;;;;;;0.27;0.27;;;19.10;99.90;;;;;;5055487;28;20644;-84
2021/08/04 06:37:44;;;;;;;0.40;0.40;;;19.30;99.90;;;;;;5074454;28;20216;-84
2021/08/04 06:40:10;;;;;;;0.27;0.27;;;19.40;99.90;;;;;;5053728;28;20255;-84
2021/08/04 06:42:36;;;;;;;0.43;0.40;;;19.60;99.90;;;;;;5096440;22;20236;-84
2021/08/04 06:45:03;;;;;;;0.27;0.27;;;19.70;99.90;;;;;;5095077;28;20199;-84
2021/08/04 06:47:28;;;;;;;0.30;0.30;;;19.90;99.90;;;;;;5076006;28;20298;-84
2021/08/04 06:49:54;;;;;;;0.40;0.40;;;20.20;99.90;;;;;;5087652;28;20649;-86
2021/08/04 06:52:19;;;;;;;2.43;1.87;;;20.20;99.90;;;;;;5068022;28;20203;-86
2021/08/04 06:54:45;;;;;;;1.03;0.87;;;20.20;99.90;;;;;;5096707;28;20295;-86
2021/08/04 06:57:10;;;;;;;0.73;0.73;;;20.30;99.90;;;;;;5077137;28;20190;-86
2021/08/04 06:59:36;;;;;;;1.07;0.90;;;20.40;99.90;;;;;;5077087;28;20189;-84
2021/08/04 07:02:02;;;;;;;1.00;0.93;;;20.40;99.90;;;;;;5077115;28;20299;-85
2021/08/04 07:04:29;;;;;;;0.70;0.70;;;20.40;99.90;;;;;;5077182;28;20271;-84
2021/08/04 07:06:56;;;;;;;1.10;1.00;;;20.40;99.90;;;;;;5095448;28;20180;-84
2021/08/04 07:09:22;;;;;;;1.07;0.70;;;20.30;99.90;;;;;;5077005;28;20184;-87
2021/08/04 07:11:48;;;;;;;1.37;1.27;;;20.30;99.90;;;;;;5077058;28;20764;-88
2021/08/04 07:14:16;;;;;;;0.73;0.70;;;20.30;99.90;;;;;;5095182;28;20279;-86
2021/08/04 07:16:42;;;;;;;1.53;1.13;;;20.30;99.90;;;;;;5076369;28;20188;-86
2021/08/04 07:19:08;;;;;;;4.33;1.13;;;20.50;99.90;;;;;;5076350;28;20176;-86
2021/08/04 07:21:33;;;;;;;2.37;1.03;;;20.80;99.90;;;;;;5078088;28;20765;-86
2021/08/04 07:23:59;;;;;;;1.67;1.57;;;21.00;99.90;;;;;;5095087;28;20180;-86
2021/08/04 07:26:24;;;;;;;1.00;0.87;;;21.10;99.90;;;;;;5076680;28;20309;-87
2021/08/04 07:28:50;;;;;;;1.23;1.00;;;21.10;99.90;;;;;;5094800;28;20567;-86
2021/08/04 07:31:16;;;;;;;0.50;0.50;;;21.40;99.90;;;;;;5076599;28;20762;-87
2021/08/04 07:33:41;;;;;;;1.00;1.00;;;21.50;99.90;;;;;;5094948;28;20176;-87
2021/08/04 07:36:07;;;;;;;0.70;0.60;;;21.70;99.90;;;;;;5076879;28;20298;-87
2021/08/04 07:38:33;;;;;;;0.90;0.80;;;21.80;99.90;;;;;;5076528;28;20703;-88
2021/08/04 07:40:59;;;;;;;0.87;0.70;;;21.20;99.90;;;;;;5076474;28;20211;-86
2021/08/04 07:43:25;;;;;;;0.90;0.90;;;21.30;99.90;;;;;;5094308;28;20215;-86
2021/08/04 07:45:51;;;;;;;0.60;0.60;;;20.90;99.90;;;;;;5092915;28;20185;-87
2021/08/04 07:48:19;;;;;;;1.20;0.97;;;21.20;99.90;;;;;;5094129;28;20267;-87
2021/08/04 07:50:44;;;;;;;1.83;0.77;;;21.50;99.90;;;;;;5076105;28;20218;-87
2021/08/04 07:53:10;;;;;;;0.70;0.67;;;21.40;99.90;;;;;;5076480;28;20188;-86
2021/08/04 07:55:35;;;;;;;0.40;0.40;;;21.50;99.90;;;;;;5077318;28;20210;-87
2021/08/04 07:58:01;;;;;;;0.60;0.60;;;22.00;99.90;;;;;;5092993;28;20632;-87
2021/08/04 08:00:27;;;;;;;0.27;0.27;;;22.10;99.90;;;;;;5076037;28;20168;-86
2021/08/04 08:02:53;;;;;;;0.70;0.60;;;22.50;99.90;;;;;;5076331;28;20575;-86
2021/08/04 08:05:18;;;;;;;0.60;0.60;;;22.90;99.90;;;;;;5075782;28;20271;-87
2021/08/04 08:07:46;;;;;;;0.40;0.40;;;23.00;99.90;;;;;;5093817;28;20584;-87
2021/08/04 08:10:12;;;;;;;0.50;0.50;;;23.00;99.90;;;;;;5076067;28;20196;-88
2021/08/04 08:12:37;;;;;;;1.13;1.03;;;23.10;99.90;;;;;;5094383;28;20196;-87
2021/08/04 08:15:03;;;;;;;0.93;0.90;;;23.00;99.90;;;;;;5093926;28;20353;-87
2021/08/04 08:17:28;;;;;;;0.53;0.53;;;23.10;99.90;;;;;;5076423;28;20203;-87
2021/08/04 08:19:54;;;;;;;2.27;0.40;;;23.10;99.90;;;;;;5075653;28;20188;-87
2021/08/04 08:22:20;;;;;;;0.43;0.43;;;23.20;99.90;;;;;;5094148;28;20211;-88
2021/08/04 08:24:52;;;;;;;1.47;0.70;;;23.30;99.90;;;;;;5093500;28;20204;-87
2021/08/04 08:27:18;;;;;;;0.67;0.67;;;23.40;99.90;;;;;;5093007;28;20188;-87
2021/08/04 08:29:43;;;;;;;0.90;0.90;;;23.60;99.90;;;;;;5093588;28;20248;-86
2021/08/04 08:32:09;;;;;;;0.50;0.50;;;23.50;99.90;;;;;;5075503;28;20208;-87
2021/08/04 08:34:34;;;;;;;0.60;0.40;;;23.50;99.90;;;;;;5075797;28;20202;-87
2021/08/04 08:37:00;;;;;;;0.50;0.50;;;23.00;99.90;;;;;;5075248;28;20583;-86
2021/08/04 08:39:26;;;;;;;1.00;0.87;;;23.10;99.90;;;;;;5075117;28;20180;-86
2021/08/04 08:41:51;;;;;;;0.60;0.60;;;23.00;99.90;;;;;;5093217;28;20215;-86
2021/08/04 08:44:17;;;;;;;1.00;0.90;;;23.40;99.90;;;;;;5075467;28;20196;-87
2021/08/04 08:46:43;;;;;;;0.57;0.57;;;22.80;99.90;;;;;;5075489;28;20184;-87
2021/08/04 08:49:09;;;;;;;0.37;0.37;;;23.00;99.90;;;;;;5075299;28;20192;-87
2021/08/04 08:51:34;;;;;;;0.63;0.57;;;23.10;99.90;;;;;;5093083;28;20211;-87
2021/08/04 08:54:01;;;;;;;0.40;0.40;;;23.50;99.90;;;;;;5074952;28;20583;-86
2021/08/04 08:56:26;;;;;;;0.50;0.50;;;23.80;99.90;;;;;;5088600;28;20181;-84
2021/08/04 08:58:54;;;;;;;0.40;0.40;;;23.70;99.90;;;;;;5095071;28;20188;-85
2021/08/04 09:01:31;;;;;;;0.50;0.50;;;24.10;99.90;;;;;;5074366;28;20241;-86
2021/08/04 09:04:00;;;;;;;0.30;0.30;;;24.30;99.90;;;;;;5079145;28;20683;-87
2021/08/04 09:06:46;;;;;;;0.47;0.43;;;24.60;99.90;;;;;;5083208;28;20274;-87
2021/08/04 09:09:19;;;;;;;0.70;0.70;;;24.90;99.90;;;;;;5093822;28;22045;-87
2021/08/04 09:11:49;;;;;;;0.80;0.80;;;24.60;99.90;;;;;;5075668;28;20204;-87
2021/08/04 09:14:15;;;;;;;1.13;0.80;;;24.70;99.90;;;;;;5070529;28;20204;-87
2021/08/04 09:16:41;;;;;;;0.47;0.47;;;23.50;99.90;;;;;;5075006;28;20223;-86
2021/08/04 09:19:22;;;;;;;0.53;0.53;;;22.80;99.90;;;;;;5074107;28;20176;-86
2021/08/04 09:22:04;;;;;;;1.00;0.90;;;22.90;99.90;;;;;;5070794;28;20577;-87
2021/08/04 09:24:29;;;;;;;0.50;0.50;;;23.50;99.90;;;;;;5078680;28;20278;-87
2021/08/04 09:26:55;;;;;;;0.50;0.50;;;23.70;99.90;;;;;;5092080;28;20240;-87
2021/08/04 09:29:20;;;;;;;0.73;0.73;;;23.30;99.90;;;;;;5074372;28;20195;-87
2021/08/04 09:31:51;;;;;;;0.50;0.43;;;23.20;99.90;;;;;;5077662;28;20207;-87
2021/08/04 09:34:26;;;;;;;0.47;0.47;;;23.70;99.90;;;;;;5071332;28;20209;-87
2021/08/04 09:37:19;;;;;;;0.57;0.53;;;24.30;99.90;;;;;;5089317;28;20214;-87
2021/08/04 09:39:59;;;;;;;0.70;0.70;;;23.30;99.90;;;;;;5064828;28;20601;-87
2021/08/04 09:42:39;;;;;;;0.60;0.60;;;22.80;99.90;;;;;;5080211;28;20215;-87
2021/08/04 09:45:05;;;;;;;0.40;0.40;;;22.60;99.90;;;;;;5100845;28;20176;-87
2021/08/04 09:47:31;;;;;;;0.97;0.40;;;23.40;99.90;;;;;;5081570;28;20195;-87
2021/08/04 09:50:06;;;;;;;0.40;0.40;;;23.70;99.90;;;;;;5070259;28;20180;-87
2021/08/04 09:52:32;;;;;;;0.40;0.40;;;24.30;99.90;;;;;;5092229;28;20741;-86
2021/08/04 09:55:16;;;;;;;0.43;0.43;;;24.90;99.90;;;;;;5076188;28;20204;-87
2021/08/04 09:57:44;;;;;;;0.83;0.80;;;25.40;99.90;;;;;;5082562;28;20206;-86
2021/08/04 10:00:13;;;;;;;0.80;0.80;;;25.40;99.90;;;;;;5086963;28;20195;-87
2021/08/04 10:02:38;;;;;;;0.53;0.53;;;25.40;99.90;;;;;;5080577;28;20203;-87
2021/08/04 10:05:15;;;;;;;0.73;0.73;;;25.30;99.90;;;;;;5103284;28;20695;-88
2021/08/04 10:08:00;;;;;;;0.57;0.57;;;25.60;99.90;;;;;;5098783;28;20168;-87
2021/08/04 10:10:26;;;;;;;1.97;0.97;;;26.30;99.90;;;;;;5075745;28;20207;-87
2021/08/04 10:12:54;;;;;;;0.70;0.70;;;25.90;99.90;;;;;;5098528;28;20199;-87
2021/08/04 10:15:19;;;;;;;0.40;0.40;;;26.00;99.90;;;;;;5073161;28;20299;-87
2021/08/04 10:17:45;;;;;;;0.60;0.57;;;26.00;99.90;;;;;;5074630;28;20264;-87
2021/08/04 10:20:11;;;;;;;0.83;0.83;;;26.10;99.90;;;;;;5098967;28;20181;-84
2021/08/04 10:22:38;;;;;;;0.67;0.67;;;25.50;99.90;;;;;;5080545;28;20201;-85
2021/08/04 10:25:05;;;;;;;0.50;0.50;;;25.20;99.90;;;;;;5080676;28;20678;-84
2021/08/04 10:27:31;;;;;;;0.70;0.70;;;25.40;99.90;;;;;;5080728;28;20660;-85
2021/08/04 10:29:57;;;;;;;0.40;0.40;;;25.20;99.90;;;;;;5099010;28;20180;-85
2021/08/04 10:32:22;;;;;;;0.57;0.57;;;25.20;99.90;;;;;;5080758;28;20723;-84
2021/08/04 10:34:49;;;;;;;0.37;0.37;;;25.30;99.90;;;;;;5101064;28;20192;-84
2021/08/04 10:37:16;;;;;;;0.30;0.30;;;25.40;99.90;;;;;;5102550;28;20183;-84
2021/08/04 10:39:41;;;;;;;0.50;0.50;;;25.50;99.90;;;;;;5098679;28;20202;-84
2021/08/04 10:42:08;;;;;;;0.30;0.30;;;25.60;99.90;;;;;;5080737;28;20216;-85
2021/08/04 10:44:35;;;;;;;0.33;0.33;;;25.60;99.90;;;;;;5097462;28;20187;-85
2021/08/04 10:47:04;;;;;;;0.30;0.30;;;25.60;99.90;;;;;;5080067;28;20214;-85
2021/08/04 10:49:32;;;;;;;0.40;0.40;;;25.50;99.90;;;;;;5086757;28;20660;-85
2021/08/04 10:52:00;;;;;;;0.30;0.30;;;25.50;99.90;;;;;;5075499;28;20293;-84
2021/08/04 10:54:30;;;;;;;0.50;0.50;;;25.30;99.90;;;;;;5094866;28;20265;-85
2021/08/04 10:57:11;;;;;;;0.43;0.43;;;25.10;99.90;;;;;;5093991;28;20263;-85
2021/08/04 10:59:37;;;;;;;0.63;0.50;;;24.90;99.90;;;;;;5095815;28;20168;-87
2021/08/04 11:02:03;;;;;;;0.50;0.50;;;24.60;99.90;;;;;;5077437;28;20211;-86
2021/08/04 11:04:28;;;;;;;0.33;0.33;;;24.60;99.90;;;;;;5078427;28;20180;-87
2021/08/04 11:07:21;;;;;;;0.33;0.33;;;24.30;99.90;;;;;;5095252;28;20184;-87
2021/08/04 11:09:48;;;;;;;0.63;0.43;;;24.10;99.90;;;;;;5072889;28;20188;-87
2021/08/04 11:12:33;;;;;;;0.30;0.30;;;23.80;99.90;;;;;;5077805;28;20200;-87
2021/08/04 11:15:01;;;;;;;0.53;0.50;;;23.50;99.90;;;;;;5078176;28;20188;-86
2021/08/04 11:17:29;;;;;;;0.63;0.63;;;23.40;99.90;;;;;;5078330;28;20237;-86
2021/08/04 11:20:08;;;;;;;0.40;0.40;;;23.30;99.90;;;;;;5078097;28;20224;-86
2021/08/04 11:22:39;;;;;;;0.77;0.77;;;23.10;99.90;;;;;;5084213;28;20200;-86
2021/08/04 11:25:12;;;;;;;0.33;0.33;;;23.20;99.90;;;;;;5094027;28;20177;-87
2021/08/04 11:27:43;;;;;;;0.47;0.47;;;23.20;99.90;;;;;;5080708;28;20190;-86
2021/08/04 11:30:11;;;;;;;0.60;0.60;;;23.40;99.90;;;;;;5065251;28;20608;-87
2021/08/04 11:32:37;;;;;;;0.50;0.27;;;23.60;99.90;;;;;;5076074;28;20295;-86
2021/08/04 11:35:18;;;;;;;0.40;0.40;;;23.90;99.90;;;;;;5069572;28;20644;-86
2021/08/04 11:37:45;;;;;;;0.23;0.23;;;24.10;99.90;;;;;;5094159;28;20184;-86
2021/08/04 11:40:12;;;;;;;0.80;0.80;;;24.60;99.90;;;;;;5076273;28;20237;-86
2021/08/04 11:42:38;;;;;;;0.83;0.30;;;24.60;99.90;;;;;;5075998;28;20218;-86
2021/08/04 11:45:09;;;;;;;0.73;0.50;;;24.70;99.90;;;;;;5076981;28;20177;-86
2021/08/04 11:47:35;;;;;;;0.80;0.67;;;24.80;99.90;;;;;;5096725;28;20187;-86
2021/08/04 11:50:06;;;;;;;0.50;0.50;;;24.50;99.90;;;;;;5069425;28;20561;-88
2021/08/04 11:52:34;;;;;;;0.90;0.70;;;24.10;99.90;;;;;;5078342;28;20199;-86
2021/08/04 11:55:07;;;;;;;0.33;0.33;;;23.90;99.90;;;;;;5097227;28;20287;-86
2021/08/04 11:57:42;;;;;;;0.53;0.53;;;23.90;99.90;;;;;;5105598;28;20172;-86
2021/08/04 12:00:17;;;;;;;0.50;0.50;;;24.00;99.90;;;;;;5096863;28;20187;-87
2021/08/04 12:02:44;;;;;;;1.10;0.40;;;23.40;99.90;;;;;;5070185;28;20679;-87
2021/08/04 12:05:11;;;;;;;0.30;0.30;;;23.30;99.90;;;;;;5094216;28;20191;-86
2021/08/04 12:07:41;;;;;;;0.50;0.50;;;22.90;99.90;;;;;;5086621;28;20169;-86
2021/08/04 12:10:12;;;;;;;0.40;0.40;;;22.70;99.90;;;;;;5076037;28;20554;-86
2021/08/04 12:12:41;;;;;;;0.60;0.60;;;22.60;99.90;;;;;;5087227;28;20288;-86
2021/08/04 12:15:14;;;;;;;0.80;0.80;;;22.50;99.90;;;;;;5093759;28;20197;-86
2021/08/04 12:17:40;;;;;;;0.50;0.50;;;22.00;99.90;;;;;;5075703;28;20237;-87
2021/08/04 12:20:22;;;;;;;1.23;0.67;;;22.00;99.90;;;;;;5093790;28;20180;-87
2021/08/04 12:23:05;;;;;;;0.50;0.50;;;22.20;99.90;;;;;;5072308;28;20203;-86
2021/08/04 12:25:37;;;;;;;0.57;0.57;;;22.20;99.90;;;;;;5093394;28;20198;-86
2021/08/04 12:28:04;;;;;;;0.70;0.70;;;22.30;99.90;;;;;;5075126;28;20191;-86
2021/08/04 12:30:36;;;;;;;0.33;0.33;;;22.30;99.90;;;;;;5093481;28;20185;-86
2021/08/04 12:36:04;;;;;;;0.63;0.63;;;22.20;99.90;;;;;;5094069;28;20199;-86
2021/08/04 12:38:33;;;;;;;1.27;0.87;;;21.30;99.90;;;;;;5076442;28;20205;-86
2021/08/04 12:40:59;;;;;;;0.87;0.87;;;21.40;99.90;;;;;;5070757;28;20180;-86
2021/08/04 12:43:33;;;;;;;0.57;0.53;;;21.60;99.90;;;;;;5056804;28;20247;-86
2021/08/04 12:46:00;;;;;;;0.40;0.40;;;21.60;99.90;;;;;;5093095;28;20184;-86
2021/08/04 12:48:40;;;;;;;1.30;0.50;;;21.80;99.90;;;;;;5075958;28;20239;-86
2021/08/04 12:51:11;;;;;;;0.30;0.30;;;22.20;99.90;;;;;;5076183;28;20202;-86
2021/08/04 12:53:37;;;;;;;1.60;0.87;;;22.20;99.90;;;;;;5075883;28;20230;-86
2021/08/04 12:56:09;;;;;;;0.73;0.73;;;22.30;99.90;;;;;;5093253;28;20200;-86